sensor_id;sensor_type;location;lat;lon;timestamp;pressure;altitude;pressure_sealevel;temperature;humidity
41040;BME280;48586;50.122;18.972;2022-11-06T00:01:41;98939.63;;;9.79;73.55
41040;BME280;48586;50.122;18.972;2022-11-06T00:04:43;98945.94;;;9.78;73.34
41040;BME280;48586;50.122;18.972;2022-11-06T00:07:45;98947.78;;;9.78;73.46
41040;BME280;48586;50.122;18.972;2022-11-06T00:10:46;98952.84;;;9.79;73.41
41040;BME280;48586;50.122;18.972;2022-11-06T00:13:48;98946.53;;;9.80;73.47
41040;BME280;48586;50.122;18.972;2022-11-06T00:16:53;98952.84;;;9.79;73.31
41040;BME280;48586;50.122;18.972;2022-11-06T00:19:55;98946.75;;;9.79;73.33
41040;BME280;48586;50.122;18.972;2022-11-06T00:22:57;98953.06;;;9.78;73.30
41040;BME280;48586;50.122;18.972;2022-11-06T00:25:59;98954.25;;;9.75;73.22
41040;BME280;48586;50.122;18.972;2022-11-06T00:29:03;98954.25;;;9.75;73.39
41040;BME280;48586;50.122;18.972;2022-11-06T00:32:06;98950.59;;;9.76;73.25
41040;BME280;48586;50.122;18.972;2022-11-06T00:35:09;98959.16;;;9.78;73.30
41040;BME280;48586;50.122;18.972;2022-11-06T00:38:11;98962.00;;;9.77;73.27
41040;BME280;48586;50.122;18.972;2022-11-06T00:41:14;98959.97;;;9.79;73.29
41040;BME280;48586;50.122;18.972;2022-11-06T00:44:16;98964.69;;;9.83;73.31
41040;BME280;48586;50.122;18.972;2022-11-06T00:47:19;98960.00;;;9.85;73.33
41040;BME280;48586;50.122;18.972;2022-11-06T00:50:22;98963.50;;;9.86;73.24
41040;BME280;48586;50.122;18.972;2022-11-06T00:53:26;98968.59;;;9.87;73.22
41040;BME280;48586;50.122;18.972;2022-11-06T00:56:29;98968.19;;;9.90;73.27
41040;BME280;48586;50.122;18.972;2022-11-06T00:59:32;98969.81;;;9.91;73.03
41040;BME280;48586;50.122;18.972;2022-11-06T01:02:36;98968.19;;;9.90;73.14
41040;BME280;48586;50.122;18.972;2022-11-06T01:05:39;98960.25;;;9.90;73.06
41040;BME280;48586;50.122;18.972;2022-11-06T01:08:41;98969.19;;;9.89;72.93
41040;BME280;48586;50.122;18.972;2022-11-06T01:11:47;98971.66;;;9.91;73.13
41040;BME280;48586;50.122;18.972;2022-11-06T01:14:49;98966.53;;;9.89;72.93
41040;BME280;48586;50.122;18.972;2022-11-06T01:17:52;98973.88;;;9.87;72.89
41040;BME280;48586;50.122;18.972;2022-11-06T01:20:54;98976.31;;;9.82;72.95
41040;BME280;48586;50.122;18.972;2022-11-06T01:23:57;98977.31;;;9.81;73.06
41040;BME280;48586;50.122;18.972;2022-11-06T01:26:59;98973.00;;;9.80;73.07
41040;BME280;48586;50.122;18.972;2022-11-06T01:30:02;98966.09;;;9.79;72.95
41040;BME280;48586;50.122;18.972;2022-11-06T01:33:05;98957.94;;;9.81;72.94
41040;BME280;48586;50.122;18.972;2022-11-06T01:36:09;98963.88;;;9.83;72.92
41040;BME280;48586;50.122;18.972;2022-11-06T01:39:13;98967.91;;;9.79;72.96
41040;BME280;48586;50.122;18.972;2022-11-06T01:42:18;98964.25;;;9.80;73.05
41040;BME280;48586;50.122;18.972;2022-11-06T01:45:26;98967.72;;;9.80;72.59
41040;BME280;48586;50.122;18.972;2022-11-06T01:48:31;98954.25;;;9.75;72.88
41040;BME280;48586;50.122;18.972;2022-11-06T01:51:35;98960.19;;;9.77;72.89
41040;BME280;48586;50.122;18.972;2022-11-06T01:54:40;98955.72;;;9.78;72.99
41040;BME280;48586;50.122;18.972;2022-11-06T01:57:45;98949.78;;;9.76;72.81
41040;BME280;48586;50.122;18.972;2022-11-06T02:00:48;98943.66;;;9.75;72.95
41040;BME280;48586;50.122;18.972;2022-11-06T02:03:55;98944.03;;;9.72;72.83
41040;BME280;48586;50.122;18.972;2022-11-06T02:06:59;98947.91;;;9.69;73.02
41040;BME280;48586;50.122;18.972;2022-11-06T02:10:00;98955.66;;;9.71;72.91
41040;BME280;48586;50.122;18.972;2022-11-06T02:13:24;98958.94;;;9.73;72.90
41040;BME280;48586;50.122;18.972;2022-11-06T02:16:36;98965.19;;;9.65;72.61
41040;BME280;48586;50.122;18.972;2022-11-06T02:19:52;98967.63;;;9.60;72.83
41040;BME280;48586;50.122;18.972;2022-11-06T02:23:23;98960.25;;;9.56;72.81
41040;BME280;48586;50.122;18.972;2022-11-06T02:26:51;98969.81;;;9.57;72.68
41040;BME280;48586;50.122;18.972;2022-11-06T02:29:59;98976.50;;;9.53;72.91
41040;BME280;48586;50.122;18.972;2022-11-06T02:33:05;98971.59;;;9.50;72.84
41040;BME280;48586;50.122;18.972;2022-11-06T02:36:11;98961.00;;;9.50;73.01
41040;BME280;48586;50.122;18.972;2022-11-06T02:39:18;98970.53;;;9.44;72.98
41040;BME280;48586;50.122;18.972;2022-11-06T02:42:25;98976.22;;;9.41;72.98
41040;BME280;48586;50.122;18.972;2022-11-06T02:45:32;98970.47;;;9.37;73.33
41040;BME280;48586;50.122;18.972;2022-11-06T02:48:37;98973.94;;;9.38;73.35
41040;BME280;48586;50.122;18.972;2022-11-06T02:51:45;98982.31;;;9.41;73.37
41040;BME280;48586;50.122;18.972;2022-11-06T02:54:53;98989.88;;;9.44;73.14
41040;BME280;48586;50.122;18.972;2022-11-06T02:58:00;98984.97;;;9.41;73.05
41040;BME280;48586;50.122;18.972;2022-11-06T03:01:06;98983.34;;;9.40;72.87
41040;BME280;48586;50.122;18.972;2022-11-06T03:04:17;98979.22;;;9.38;72.89
41040;BME280;48586;50.122;18.972;2022-11-06T03:07:24;98987.16;;;9.38;73.09
41040;BME280;48586;50.122;18.972;2022-11-06T03:10:33;98981.88;;;9.38;73.21
41040;BME280;48586;50.122;18.972;2022-11-06T03:13:46;98978.63;;;9.36;73.21
41040;BME280;48586;50.122;18.972;2022-11-06T03:16:52;98987.75;;;9.33;73.04
41040;BME280;48586;50.122;18.972;2022-11-06T03:20:02;98981.19;;;9.29;73.17
41040;BME280;48586;50.122;18.972;2022-11-06T03:23:10;98993.00;;;9.27;73.12
41040;BME280;48586;50.122;18.972;2022-11-06T03:26:16;98993.75;;;9.20;72.93
41040;BME280;48586;50.122;18.972;2022-11-06T03:29:24;98996.53;;;9.12;73.03
41040;BME280;48586;50.122;18.972;2022-11-06T03:32:30;98996.03;;;9.02;72.90
41040;BME280;48586;50.122;18.972;2022-11-06T03:35:37;98999.59;;;8.94;72.84
41040;BME280;48586;50.122;18.972;2022-11-06T03:38:44;99010.31;;;8.86;72.74
41040;BME280;48586;50.122;18.972;2022-11-06T03:41:50;99000.69;;;8.79;72.80
41040;BME280;48586;50.122;18.972;2022-11-06T03:44:58;99000.78;;;8.70;73.13
41040;BME280;48586;50.122;18.972;2022-11-06T03:48:03;99004.59;;;8.68;73.42
41040;BME280;48586;50.122;18.972;2022-11-06T03:51:12;99010.28;;;8.65;73.05
41040;BME280;48586;50.122;18.972;2022-11-06T03:54:17;99016.47;;;8.57;73.07
41040;BME280;48586;50.122;18.972;2022-11-06T03:57:25;99009.28;;;8.51;73.10
41040;BME280;48586;50.122;18.972;2022-11-06T04:00:33;99008.41;;;8.44;73.17
41040;BME280;48586;50.122;18.972;2022-11-06T04:03:39;99012.56;;;8.38;73.19
41040;BME280;48586;50.122;18.972;2022-11-06T04:06:46;99022.81;;;8.27;72.94
41040;BME280;48586;50.122;18.972;2022-11-06T04:09:56;99023.19;;;8.09;73.11
41040;BME280;48586;50.122;18.972;2022-11-06T04:13:20;99025.47;;;7.97;73.62
41040;BME280;48586;50.122;18.972;2022-11-06T04:16:45;99030.00;;;7.88;73.60
41040;BME280;48586;50.122;18.972;2022-11-06T04:19:51;99034.34;;;7.81;73.92
41040;BME280;48586;50.122;18.972;2022-11-06T04:23:00;99034.09;;;7.76;73.80
41040;BME280;48586;50.122;18.972;2022-11-06T04:26:08;99036.78;;;7.68;73.87
41040;BME280;48586;50.122;18.972;2022-11-06T04:29:40;99030.78;;;7.59;74.21
41040;BME280;48586;50.122;18.972;2022-11-06T04:32:55;99037.59;;;7.54;73.95
41040;BME280;48586;50.122;18.972;2022-11-06T04:36:05;99039.31;;;7.47;74.06
41040;BME280;48586;50.122;18.972;2022-11-06T04:39:17;99026.84;;;7.40;73.99
41040;BME280;48586;50.122;18.972;2022-11-06T04:42:27;99028.88;;;7.30;74.08
41040;BME280;48586;50.122;18.972;2022-11-06T04:45:35;99037.03;;;7.21;74.13
41040;BME280;48586;50.122;18.972;2022-11-06T04:48:40;99038.72;;;7.13;74.47
41040;BME280;48586;50.122;18.972;2022-11-06T04:51:44;99025.09;;;7.10;74.63
41040;BME280;48586;50.122;18.972;2022-11-06T04:54:47;99024.28;;;7.09;74.72
41040;BME280;48586;50.122;18.972;2022-11-06T04:57:50;99027.91;;;7.08;74.91
41040;BME280;48586;50.122;18.972;2022-11-06T05:00:52;99035.19;;;7.06;75.22
41040;BME280;48586;50.122;18.972;2022-11-06T05:03:55;99027.09;;;7.08;75.34
41040;BME280;48586;50.122;18.972;2022-11-06T05:06:57;99021.47;;;7.11;75.45
41040;BME280;48586;50.122;18.972;2022-11-06T05:09:58;99021.03;;;7.22;76.10
41040;BME280;48586;50.122;18.972;2022-11-06T05:13:00;99027.91;;;7.31;75.58
41040;BME280;48586;50.122;18.972;2022-11-06T05:16:02;99029.88;;;7.29;75.18
41040;BME280;48586;50.122;18.972;2022-11-06T05:19:05;99018.34;;;7.30;75.60
41040;BME280;48586;50.122;18.972;2022-11-06T05:22:08;99024.91;;;7.34;75.75
41040;BME280;48586;50.122;18.972;2022-11-06T05:25:29;99033.94;;;7.40;75.25
41040;BME280;48586;50.122;18.972;2022-11-06T05:28:32;99039.09;;;7.33;75.07
41040;BME280;48586;50.122;18.972;2022-11-06T05:31:34;99041.78;;;7.25;75.39
41040;BME280;48586;50.122;18.972;2022-11-06T05:34:37;99044.13;;;7.20;75.41
41040;BME280;48586;50.122;18.972;2022-11-06T05:37:38;99046.63;;;7.13;75.56
41040;BME280;48586;50.122;18.972;2022-11-06T05:40:40;99058.38;;;7.11;75.78
41040;BME280;48586;50.122;18.972;2022-11-06T05:43:42;99053.91;;;7.11;75.63
41040;BME280;48586;50.122;18.972;2022-11-06T05:46:44;99061.19;;;7.09;75.66
41040;BME280;48586;50.122;18.972;2022-11-06T05:49:47;99058.59;;;7.01;75.43
41040;BME280;48586;50.122;18.972;2022-11-06T05:52:48;99066.09;;;6.89;75.97
41040;BME280;48586;50.122;18.972;2022-11-06T05:55:50;99066.09;;;6.89;75.99
41040;BME280;48586;50.122;18.972;2022-11-06T05:58:52;99067.72;;;6.90;76.07
41040;BME280;48586;50.122;18.972;2022-11-06T06:01:54;99075.91;;;6.96;75.83
41040;BME280;48586;50.122;18.972;2022-11-06T06:04:59;99071.00;;;6.92;75.80
41040;BME280;48586;50.122;18.972;2022-11-06T06:08:00;99077.91;;;6.93;75.90
41040;BME280;48586;50.122;18.972;2022-11-06T06:11:05;99072.16;;;6.90;75.88
41040;BME280;48586;50.122;18.972;2022-11-06T06:14:07;99062.09;;;6.93;76.03
41040;BME280;48586;50.122;18.972;2022-11-06T06:17:09;99061.06;;;7.03;76.42
41040;BME280;48586;50.122;18.972;2022-11-06T06:20:12;99068.56;;;7.14;76.20
41040;BME280;48586;50.122;18.972;2022-11-06T06:23:14;99061.47;;;7.14;75.75
41040;BME280;48586;50.122;18.972;2022-11-06T06:26:16;99065.56;;;7.17;76.07
41040;BME280;48586;50.122;18.972;2022-11-06T06:29:17;99064.94;;;7.15;75.70
41040;BME280;48586;50.122;18.972;2022-11-06T06:32:19;99075.81;;;7.12;75.71
41040;BME280;48586;50.122;18.972;2022-11-06T06:35:22;99077.34;;;7.06;75.64
41040;BME280;48586;50.122;18.972;2022-11-06T06:38:24;99085.47;;;6.97;75.61
41040;BME280;48586;50.122;18.972;2022-11-06T06:41:26;99081.06;;;6.89;76.27
41040;BME280;48586;50.122;18.972;2022-11-06T06:44:28;99085.13;;;7.00;76.72
41040;BME280;48586;50.122;18.972;2022-11-06T06:47:29;99080.78;;;7.07;76.03
41040;BME280;48586;50.122;18.972;2022-11-06T06:50:33;99089.03;;;7.04;76.09
41040;BME280;48586;50.122;18.972;2022-11-06T06:53:35;99075.19;;;7.10;75.93
41040;BME280;48586;50.122;18.972;2022-11-06T06:56:36;99090.88;;;7.03;75.52
41040;BME280;48586;50.122;18.972;2022-11-06T06:59:38;99091.28;;;6.92;75.75
41040;BME280;48586;50.122;18.972;2022-11-06T07:02:40;99095.53;;;6.93;76.02
41040;BME280;48586;50.122;18.972;2022-11-06T07:05:43;99088.78;;;6.90;75.89
41040;BME280;48586;50.122;18.972;2022-11-06T07:08:46;99088.47;;;6.93;75.75
41040;BME280;48586;50.122;18.972;2022-11-06T07:11:48;99095.59;;;6.85;75.87
41040;BME280;48586;50.122;18.972;2022-11-06T07:14:50;99102.13;;;6.97;76.78
41040;BME280;48586;50.122;18.972;2022-11-06T07:17:52;99090.63;;;7.13;76.33
41040;BME280;48586;50.122;18.972;2022-11-06T07:20:55;99096.13;;;7.26;76.18
41040;BME280;48586;50.122;18.972;2022-11-06T07:23:57;99087.41;;;7.26;75.39
41040;BME280;48586;50.122;18.972;2022-11-06T07:26:59;99093.22;;;7.21;75.83
41040;BME280;48586;50.122;18.972;2022-11-06T07:30:01;99093.06;;;7.23;75.86
41040;BME280;48586;50.122;18.972;2022-11-06T07:33:04;99087.78;;;7.23;76.24
41040;BME280;48586;50.122;18.972;2022-11-06T07:36:09;99084.50;;;7.21;75.78
41040;BME280;48586;50.122;18.972;2022-11-06T07:39:11;99091.44;;;7.13;75.84
41040;BME280;48586;50.122;18.972;2022-11-06T07:42:12;99086.38;;;7.12;76.07
41040;BME280;48586;50.122;18.972;2022-11-06T07:45:30;99086.13;;;7.22;76.56
41040;BME280;48586;50.122;18.972;2022-11-06T07:48:32;99091.47;;;7.36;76.17
41040;BME280;48586;50.122;18.972;2022-11-06T07:51:35;99083.31;;;7.46;76.22
41040;BME280;48586;50.122;18.972;2022-11-06T07:54:37;99085.00;;;7.62;75.52
41040;BME280;48586;50.122;18.972;2022-11-06T07:57:38;99082.47;;;7.68;75.31
41040;BME280;48586;50.122;18.972;2022-11-06T08:00:45;99081.22;;;7.79;75.45
41040;BME280;48586;50.122;18.972;2022-11-06T08:03:46;99083.88;;;7.79;75.28
41040;BME280;48586;50.122;18.972;2022-11-06T08:06:49;99081.44;;;7.92;75.90
41040;BME280;48586;50.122;18.972;2022-11-06T08:09:51;99087.91;;;8.05;75.47
41040;BME280;48586;50.122;18.972;2022-11-06T08:12:53;99086.56;;;8.09;75.19
41040;BME280;48586;50.122;18.972;2022-11-06T08:15:55;99087.63;;;8.14;75.13
41040;BME280;48586;50.122;18.972;2022-11-06T08:18:56;99085.72;;;8.23;75.41
41040;BME280;48586;50.122;18.972;2022-11-06T08:21:59;99085.44;;;8.33;75.29
41040;BME280;48586;50.122;18.972;2022-11-06T08:25:02;99078.50;;;8.47;74.69
41040;BME280;48586;50.122;18.972;2022-11-06T08:28:04;99077.97;;;8.51;74.45
41040;BME280;48586;50.122;18.972;2022-11-06T08:31:07;99070.13;;;8.58;75.06
41040;BME280;48586;50.122;18.972;2022-11-06T08:34:09;99075.00;;;8.76;74.49
41040;BME280;48586;50.122;18.972;2022-11-06T08:37:12;99068.53;;;8.93;74.85
41040;BME280;48586;50.122;18.972;2022-11-06T08:40:14;99064.44;;;9.12;74.75
41040;BME280;48586;50.122;18.972;2022-11-06T08:43:16;99067.09;;;9.33;74.51
41040;BME280;48586;50.122;18.972;2022-11-06T08:46:18;99070.38;;;9.57;73.78
41040;BME280;48586;50.122;18.972;2022-11-06T08:49:20;99068.47;;;9.51;73.20
41040;BME280;48586;50.122;18.972;2022-11-06T08:52:24;99081.66;;;9.44;73.03
41040;BME280;48586;50.122;18.972;2022-11-06T08:55:26;99078.06;;;9.52;73.55
41040;BME280;48586;50.122;18.972;2022-11-06T08:58:28;99070.28;;;9.72;73.23
41040;BME280;48586;50.122;18.972;2022-11-06T09:01:30;99071.16;;;9.79;72.51
41040;BME280;48586;50.122;18.972;2022-11-06T09:04:32;99072.06;;;9.92;72.83
41040;BME280;48586;50.122;18.972;2022-11-06T09:07:35;99069.66;;;9.98;72.32
41040;BME280;48586;50.122;18.972;2022-11-06T09:10:37;99073.84;;;10.13;72.32
41040;BME280;48586;50.122;18.972;2022-11-06T09:13:39;99078.47;;;10.39;72.10
41040;BME280;48586;50.122;18.972;2022-11-06T09:16:41;99070.22;;;10.62;71.52
41040;BME280;48586;50.122;18.972;2022-11-06T09:19:43;99069.41;;;10.62;70.60
41040;BME280;48586;50.122;18.972;2022-11-06T09:22:47;99077.00;;;10.72;70.58
41040;BME280;48586;50.122;18.972;2022-11-06T09:25:49;99064.97;;;10.69;70.32
41040;BME280;48586;50.122;18.972;2022-11-06T09:28:51;99063.25;;;11.03;70.74
41040;BME280;48586;50.122;18.972;2022-11-06T09:31:53;99053.53;;;11.63;70.47
41040;BME280;48586;50.122;18.972;2022-11-06T09:34:55;99052.00;;;12.20;69.19
41040;BME280;48586;50.122;18.972;2022-11-06T09:38:03;99053.72;;;13.11;68.59
41040;BME280;48586;50.122;18.972;2022-11-06T09:41:05;99042.94;;;13.56;66.54
41040;BME280;48586;50.122;18.972;2022-11-06T09:44:23;99036.03;;;13.98;64.30
41040;BME280;48586;50.122;18.972;2022-11-06T09:47:34;99028.19;;;14.58;65.25
41040;BME280;48586;50.122;18.972;2022-11-06T09:50:41;99024.41;;;15.26;63.71
41040;BME280;48586;50.122;18.972;2022-11-06T09:53:52;99024.81;;;16.00;62.63
41040;BME280;48586;50.122;18.972;2022-11-06T09:57:01;99017.28;;;16.61;61.42
41040;BME280;48586;50.122;18.972;2022-11-06T10:00:06;99020.81;;;17.07;60.34
41040;BME280;48586;50.122;18.972;2022-11-06T10:03:14;99012.59;;;17.59;58.76
41040;BME280;48586;50.122;18.972;2022-11-06T10:06:20;99005.69;;;18.18;58.22
41040;BME280;48586;50.122;18.972;2022-11-06T10:09:24;99004.75;;;18.52;57.18
41040;BME280;48586;50.122;18.972;2022-11-06T10:12:33;98999.72;;;18.82;55.79
41040;BME280;48586;50.122;18.972;2022-11-06T10:15:43;99001.50;;;19.26;54.27
41040;BME280;48586;50.122;18.972;2022-11-06T10:18:53;98998.25;;;19.56;53.46
41040;BME280;48586;50.122;18.972;2022-11-06T10:22:01;98995.75;;;19.81;53.28
41040;BME280;48586;50.122;18.972;2022-11-06T10:25:18;98987.56;;;20.03;49.82
41040;BME280;48586;50.122;18.972;2022-11-06T10:28:33;98989.75;;;20.11;51.33
41040;BME280;48586;50.122;18.972;2022-11-06T10:31:45;98997.19;;;20.47;50.61
41040;BME280;48586;50.122;18.972;2022-11-06T10:34:51;98982.69;;;20.58;51.41
41040;BME280;48586;50.122;18.972;2022-11-06T10:37:58;98985.97;;;20.75;50.45
41040;BME280;48586;50.122;18.972;2022-11-06T10:41:03;98988.16;;;20.83;50.06
41040;BME280;48586;50.122;18.972;2022-11-06T10:44:09;98976.88;;;21.02;49.43
41040;BME280;48586;50.122;18.972;2022-11-06T10:47:17;98975.81;;;21.28;48.78
41040;BME280;48586;50.122;18.972;2022-11-06T10:50:20;98969.59;;;21.58;48.57
41040;BME280;48586;50.122;18.972;2022-11-06T10:53:32;98959.06;;;21.72;46.48
41040;BME280;48586;50.122;18.972;2022-11-06T10:56:50;98957.44;;;21.71;46.12
41040;BME280;48586;50.122;18.972;2022-11-06T10:59:54;98959.06;;;21.82;47.31
41040;BME280;48586;50.122;18.972;2022-11-06T11:03:00;98943.94;;;21.86;46.74
41040;BME280;48586;50.122;18.972;2022-11-06T11:06:05;98948.50;;;21.96;46.72
41040;BME280;48586;50.122;18.972;2022-11-06T11:09:26;98946.22;;;22.24;42.42
41040;BME280;48586;50.122;18.972;2022-11-06T11:12:30;98941.69;;;22.14;45.13
41040;BME280;48586;50.122;18.972;2022-11-06T11:15:42;98933.06;;;22.07;42.25
41040;BME280;48586;50.122;18.972;2022-11-06T11:22:44;98926.22;;;22.30;45.49
41040;BME280;48586;50.122;18.972;2022-11-06T11:25:51;98920.19;;;22.48;44.31
41040;BME280;48586;50.122;18.972;2022-11-06T11:28:58;98911.66;;;22.75;43.87
41040;BME280;48586;50.122;18.972;2022-11-06T11:32:04;98916.75;;;22.82;43.65
41040;BME280;48586;50.122;18.972;2022-11-06T11:35:09;98915.31;;;22.94;43.18
41040;BME280;48586;50.122;18.972;2022-11-06T11:38:13;98909.00;;;23.04;42.94
41040;BME280;48586;50.122;18.972;2022-11-06T11:41:21;98900.22;;;22.88;41.78
41040;BME280;48586;50.122;18.972;2022-11-06T11:44:27;98908.41;;;22.29;43.07
41040;BME280;48586;50.122;18.972;2022-11-06T11:47:31;98903.34;;;22.17;43.72
41040;BME280;48586;50.122;18.972;2022-11-06T11:50:33;98897.28;;;21.70;43.29
41040;BME280;48586;50.122;18.972;2022-11-06T11:53:37;98906.81;;;20.97;44.03
41040;BME280;48586;50.122;18.972;2022-11-06T11:56:44;98909.47;;;20.66;44.18
41040;BME280;48586;50.122;18.972;2022-11-06T11:59:51;98910.69;;;20.23;44.57
41040;BME280;48586;50.122;18.972;2022-11-06T12:02:56;98915.81;;;19.72;45.58
41040;BME280;48586;50.122;18.972;2022-11-06T12:06:05;98903.47;;;19.28;45.49
41040;BME280;48586;50.122;18.972;2022-11-06T12:09:10;98898.16;;;19.38;46.40
41040;BME280;48586;50.122;18.972;2022-11-06T12:12:19;98893.56;;;19.91;45.64
41040;BME280;48586;50.122;18.972;2022-11-06T12:15:27;98897.91;;;19.87;45.16
41040;BME280;48586;50.122;18.972;2022-11-06T12:18:33;98895.72;;;19.89;45.53
41040;BME280;48586;50.122;18.972;2022-11-06T12:21:38;98893.56;;;19.86;45.16
41040;BME280;48586;50.122;18.972;2022-11-06T12:24:48;98889.28;;;19.90;44.46
41040;BME280;48586;50.122;18.972;2022-11-06T12:27:56;98882.06;;;19.96;44.69
41040;BME280;48586;50.122;18.972;2022-11-06T12:31:04;98877.81;;;20.10;44.03
41040;BME280;48586;50.122;18.972;2022-11-06T12:34:13;98876.19;;;20.04;44.09
41040;BME280;48586;50.122;18.972;2022-11-06T12:37:21;98876.44;;;20.03;43.98
41040;BME280;48586;50.122;18.972;2022-11-06T12:40:28;98869.41;;;19.97;44.21
41040;BME280;48586;50.122;18.972;2022-11-06T12:43:35;98866.84;;;19.69;44.11
41040;BME280;48586;50.122;18.972;2022-11-06T12:46:47;98870.69;;;19.31;44.77
41040;BME280;48586;50.122;18.972;2022-11-06T12:50:21;98872.78;;;18.92;44.88
41040;BME280;48586;50.122;18.972;2022-11-06T12:53:37;98880.84;;;18.60;45.76
41040;BME280;48586;50.122;18.972;2022-11-06T12:56:47;98880.91;;;17.94;46.72
41040;BME280;48586;50.122;18.972;2022-11-06T13:00:03;98872.13;;;17.77;47.22
41040;BME280;48586;50.122;18.972;2022-11-06T13:03:39;98871.75;;;17.68;47.24
41040;BME280;48586;50.122;18.972;2022-11-06T13:07:04;98867.50;;;17.50;47.58
41040;BME280;48586;50.122;18.972;2022-11-06T13:10:19;98866.94;;;17.31;47.44
41040;BME280;48586;50.122;18.972;2022-11-06T13:13:33;98864.25;;;16.98;48.30
41040;BME280;48586;50.122;18.972;2022-11-06T13:16:41;98874.06;;;16.75;48.66
41040;BME280;48586;50.122;18.972;2022-11-06T13:19:50;98874.44;;;16.50;49.43
41040;BME280;48586;50.122;18.972;2022-11-06T13:22:59;98871.25;;;16.36;50.09
41040;BME280;48586;50.122;18.972;2022-11-06T13:26:08;98872.88;;;16.20;50.33
41040;BME280;48586;50.122;18.972;2022-11-06T13:29:16;98866.25;;;16.11;50.73
41040;BME280;48586;50.122;18.972;2022-11-06T13:32:22;98863.81;;;15.98;50.48
41040;BME280;48586;50.122;18.972;2022-11-06T13:35:27;98861.78;;;15.77;51.15
41040;BME280;48586;50.122;18.972;2022-11-06T13:38:34;98857.06;;;15.55;51.39
41040;BME280;48586;50.122;18.972;2022-11-06T13:41:37;98856.41;;;15.36;51.79
41040;BME280;48586;50.122;18.972;2022-11-06T13:44:39;98845.50;;;15.26;52.34
41040;BME280;48586;50.122;18.972;2022-11-06T13:47:51;98847.72;;;15.17;52.98
41040;BME280;48586;50.122;18.972;2022-11-06T13:51:02;98839.81;;;15.11;52.75
41040;BME280;48586;50.122;18.972;2022-11-06T13:54:13;98842.81;;;15.03;53.23
41040;BME280;48586;50.122;18.972;2022-11-06T13:57:44;98836.84;;;14.77;53.23
41040;BME280;48586;50.122;18.972;2022-11-06T14:01:01;98840.91;;;14.56;53.90
41040;BME280;48586;50.122;18.972;2022-11-06T14:04:20;98837.88;;;14.53;54.24
41040;BME280;48586;50.122;18.972;2022-11-06T14:07:29;98835.66;;;14.50;54.02
41040;BME280;48586;50.122;18.972;2022-11-06T14:10:35;98838.41;;;14.43;54.42
41040;BME280;48586;50.122;18.972;2022-11-06T14:13:40;98844.28;;;14.33;54.65
41040;BME280;48586;50.122;18.972;2022-11-06T14:16:42;98829.41;;;14.14;54.93
41040;BME280;48586;50.122;18.972;2022-11-06T14:20:00;98830.28;;;14.08;55.10
41040;BME280;48586;50.122;18.972;2022-11-06T14:26:43;98824.78;;;13.91;55.62
41040;BME280;48586;50.122;18.972;2022-11-06T14:30:01;98834.34;;;13.80;55.86
41040;BME280;48586;50.122;18.972;2022-11-06T14:33:09;98826.91;;;13.70;55.88
41040;BME280;48586;50.122;18.972;2022-11-06T14:36:12;98834.53;;;13.60;56.36
41040;BME280;48586;50.122;18.972;2022-11-06T14:39:15;98827.09;;;13.51;56.90
41040;BME280;48586;50.122;18.972;2022-11-06T14:42:28;98831.38;;;13.52;56.75
41040;BME280;48586;50.122;18.972;2022-11-06T14:45:32;98835.97;;;13.44;57.14
41040;BME280;48586;50.122;18.972;2022-11-06T14:48:37;98833.97;;;13.40;57.06
41040;BME280;48586;50.122;18.972;2022-11-06T14:51:40;98839.22;;;13.28;57.21
41040;BME280;48586;50.122;18.972;2022-11-06T14:54:51;98834.84;;;13.15;57.81
41040;BME280;48586;50.122;18.972;2022-11-06T14:57:58;98839.25;;;13.03;57.65
41040;BME280;48586;50.122;18.972;2022-11-06T15:01:02;98835.47;;;12.92;58.10
41040;BME280;48586;50.122;18.972;2022-11-06T15:04:18;98835.75;;;12.84;58.60
41040;BME280;48586;50.122;18.972;2022-11-06T15:07:33;98831.94;;;12.74;58.79
41040;BME280;48586;50.122;18.972;2022-11-06T15:10:53;98821.19;;;12.62;58.52
41040;BME280;48586;50.122;18.972;2022-11-06T15:17:38;98826.56;;;12.24;59.02
41040;BME280;48586;50.122;18.972;2022-11-06T15:20:41;98828.25;;;12.11;59.03
41040;BME280;48586;50.122;18.972;2022-11-06T15:23:53;98819.72;;;12.03;59.47
41040;BME280;48586;50.122;18.972;2022-11-06T15:27:03;98817.72;;;11.91;59.59
41040;BME280;48586;50.122;18.972;2022-11-06T15:30:15;98820.63;;;11.83;59.50
41040;BME280;48586;50.122;18.972;2022-11-06T15:33:23;98829.66;;;11.76;59.87
41040;BME280;48586;50.122;18.972;2022-11-06T15:36:28;98819.91;;;11.63;59.85
41040;BME280;48586;50.122;18.972;2022-11-06T15:39:37;98818.47;;;11.54;60.01
41040;BME280;48586;50.122;18.972;2022-11-06T15:42:40;98811.78;;;11.44;60.04
41040;BME280;48586;50.122;18.972;2022-11-06T15:45:43;98806.50;;;11.38;60.59
41040;BME280;48586;50.122;18.972;2022-11-06T15:48:46;98801.22;;;11.31;60.72
41040;BME280;48586;50.122;18.972;2022-11-06T15:51:51;98811.03;;;11.24;60.92
41040;BME280;48586;50.122;18.972;2022-11-06T15:54:53;98800.66;;;11.16;60.99
41040;BME280;48586;50.122;18.972;2022-11-06T15:58:05;98806.78;;;11.10;61.24
41040;BME280;48586;50.122;18.972;2022-11-06T16:01:10;98805.38;;;11.01;61.54
41040;BME280;48586;50.122;18.972;2022-11-06T16:04:16;98801.72;;;10.95;61.67
41040;BME280;48586;50.122;18.972;2022-11-06T16:07:20;98799.69;;;10.90;61.72
41040;BME280;48586;50.122;18.972;2022-11-06T16:10:22;98803.34;;;10.83;61.99
41040;BME280;48586;50.122;18.972;2022-11-06T16:13:25;98800.50;;;10.78;62.09
41040;BME280;48586;50.122;18.972;2022-11-06T16:16:34;98803.78;;;10.73;62.20
41040;BME280;48586;50.122;18.972;2022-11-06T16:19:37;98796.63;;;10.67;62.32
41040;BME280;48586;50.122;18.972;2022-11-06T16:22:40;98797.00;;;10.57;62.52
41040;BME280;48586;50.122;18.972;2022-11-06T16:25:42;98801.09;;;10.47;62.79
41040;BME280;48586;50.122;18.972;2022-11-06T16:28:46;98802.53;;;10.42;62.77
41040;BME280;48586;50.122;18.972;2022-11-06T16:31:57;98798.63;;;10.38;63.06